Time;durP1;ratioP1;P1;durP2;ratioP2;P2;SDS_P1;SDS_P2;PMS_P1;PMS_P2;Temp;Humidity;BMP_temperature;BMP_pressure;BME280_temperature;BME280_humidity;BME280_pressure;Samples;Min_cycle;Max_cycle;Signal;HPM_P1;HPM_P2
2022/04/14 00:00:55;;;;;;;3.70;2.60;;;;;;;;;;5018349;28;20017;-68
2022/04/14 00:03:21;;;;;;;4.55;2.70;;;;;;;;;;5015210;28;20030;-68
2022/04/14 00:05:47;;;;;;;5.15;2.83;;;;;;;;;;5016856;28;20028;-69
2022/04/14 00:08:13;;;;;;;3.75;2.75;;;;;;;;;;5013703;28;20144;-69
2022/04/14 00:10:40;;;;;;;5.75;3.05;;;;;;;;;;5011874;28;20025;-69
2022/04/14 00:13:06;;;;;;;3.33;3.03;;;;;;;;;;5013983;28;20032;-69
2022/04/14 00:15:32;;;;;;;5.68;3.10;;;;;;;;;;5009803;28;20057;-69
2022/04/14 00:17:58;;;;;;;5.32;3.42;;;;;;;;;;5008310;28;20036;-68
2022/04/14 00:20:24;;;;;;;7.18;3.33;;;;;;;;;;5013044;28;20040;-68
2022/04/14 00:22:51;;;;;;;5.75;3.13;;;;;;;;;;5010663;28;20533;-69
2022/04/14 00:25:17;;;;;;;3.95;3.03;;;;;;;;;;5008278;28;20183;-69
2022/04/14 00:27:43;;;;;;;5.72;3.00;;;;;;;;;;5010407;28;20030;-68
2022/04/14 00:30:10;;;;;;;3.92;3.08;;;;;;;;;;5010824;28;20034;-69
2022/04/14 00:32:36;;;;;;;6.50;2.58;;;;;;;;;;5013126;28;20022;-69
2022/04/14 00:35:03;;;;;;;4.75;2.83;;;;;;;;;;5007642;28;20037;-68
2022/04/14 00:37:29;;;;;;;5.45;2.65;;;;;;;;;;5002969;28;20046;-69
2022/04/14 00:39:55;;;;;;;4.70;3.00;;;;;;;;;;5010842;28;20022;-69
2022/04/14 00:42:21;;;;;;;4.93;2.90;;;;;;;;;;5012574;28;20031;-68
2022/04/14 00:44:47;;;;;;;4.80;2.70;;;;;;;;;;5016875;28;20052;-69
2022/04/14 00:47:14;;;;;;;3.78;2.72;;;;;;;;;;5020151;28;20499;-69
2022/04/14 00:49:40;;;;;;;5.38;3.15;;;;;;;;;;5017199;28;20025;-69
2022/04/14 00:52:07;;;;;;;3.70;2.50;;;;;;;;;;5013220;28;20112;-69
2022/04/14 00:54:34;;;;;;;4.60;2.30;;;;;;;;;;5007010;28;20513;-70
2022/04/14 00:57:01;;;;;;;4.35;2.28;;;;;;;;;;5005961;28;20042;-73
2022/04/14 00:59:27;;;;;;;3.65;2.38;;;;;;;;;;5005159;28;20536;-71
2022/04/14 01:01:57;;;;;;;3.53;2.42;;;;;;;;;;5005964;28;20041;-69
2022/04/14 01:04:23;;;;;;;4.50;2.70;;;;;;;;;;5006430;28;20417;-69
2022/04/14 01:06:49;;;;;;;5.28;2.50;;;;;;;;;;5006532;28;20034;-70
2022/04/14 01:09:19;;;;;;;4.63;2.22;;;;;;;;;;5006166;28;20032;-70
2022/04/14 01:11:50;;;;;;;5.20;2.20;;;;;;;;;;5006134;28;20061;-71
2022/04/14 01:14:20;;;;;;;3.88;2.38;;;;;;;;;;5004876;28;20436;-70
2022/04/14 01:16:46;;;;;;;3.20;2.13;;;;;;;;;;5006120;28;20397;-70
2022/04/14 01:19:12;;;;;;;3.17;2.03;;;;;;;;;;5007756;28;20033;-72
2022/04/14 01:21:40;;;;;;;4.50;1.92;;;;;;;;;;5025198;28;20033;-70
2022/04/14 01:24:09;;;;;;;5.03;1.88;;;;;;;;;;5025340;28;20037;-70
2022/04/14 01:26:37;;;;;;;3.95;1.98;;;;;;;;;;5023102;28;20036;-69
2022/04/14 01:29:03;;;;;;;5.25;1.95;;;;;;;;;;5007644;28;20122;-70
2022/04/14 01:31:30;;;;;;;5.55;2.33;;;;;;;;;;5014185;28;20095;-70
2022/04/14 01:33:56;;;;;;;4.28;2.08;;;;;;;;;;5006176;28;20033;-71
2022/04/14 01:36:22;;;;;;;3.88;1.55;;;;;;;;;;5005300;28;20038;-73
2022/04/14 01:38:48;;;;;;;2.45;1.60;;;;;;;;;;5004714;28;20058;-71
2022/04/14 01:41:14;;;;;;;2.33;1.30;;;;;;;;;;5005394;28;20113;-78
2022/04/14 01:43:43;;;;;;;3.45;2.00;;;;;;;;;;5005885;28;20025;-90
2022/04/14 01:46:09;;;;;;;3.00;1.80;;;;;;;;;;5005021;28;20046;-71
2022/04/14 01:48:38;;;;;;;2.67;2.03;;;;;;;;;;5004178;28;20026;-71
2022/04/14 01:51:05;;;;;;;5.70;2.42;;;;;;;;;;5004992;28;20518;-70
2022/04/14 01:53:31;;;;;;;4.60;2.03;;;;;;;;;;5004281;28;20106;-72
2022/04/14 01:55:57;;;;;;;5.93;2.92;;;;;;;;;;5006858;28;20095;-69
2022/04/14 01:58:23;;;;;;;4.88;2.05;;;;;;;;;;5023046;28;20084;-69
2022/04/14 02:00:49;;;;;;;4.32;1.83;;;;;;;;;;5020364;28;20105;-88
2022/04/14 02:03:16;;;;;;;3.50;2.35;;;;;;;;;;5020125;28;20492;-69
2022/04/14 02:05:42;;;;;;;7.47;2.55;;;;;;;;;;5005032;28;20501;-71
2022/04/14 02:08:08;;;;;;;3.15;1.75;;;;;;;;;;5003858;28;20129;-70
2022/04/14 02:10:34;;;;;;;4.80;2.50;;;;;;;;;;5018366;28;20123;-70
2022/04/14 02:13:00;;;;;;;4.30;2.03;;;;;;;;;;5024863;28;20037;-69
2022/04/14 02:15:26;;;;;;;3.55;2.08;;;;;;;;;;5018520;28;20046;-69
2022/04/14 02:17:52;;;;;;;4.80;1.80;;;;;;;;;;5006937;28;20034;-69
2022/04/14 02:20:20;;;;;;;6.20;1.90;;;;;;;;;;5006136;28;20505;-81
2022/04/14 02:22:46;;;;;;;3.08;1.80;;;;;;;;;;5013990;28;20183;-70
2022/04/14 02:25:12;;;;;;;4.15;1.90;;;;;;;;;;5038373;28;20559;-70
2022/04/14 02:27:38;;;;;;;3.97;1.90;;;;;;;;;;5046758;28;20020;-69
2022/04/14 02:30:05;;;;;;;3.88;1.80;;;;;;;;;;5031621;28;20164;-69
2022/04/14 02:32:31;;;;;;;2.42;1.60;;;;;;;;;;5025537;28;20137;-69
2022/04/14 02:34:57;;;;;;;5.45;2.25;;;;;;;;;;5026880;28;20108;-69
2022/04/14 02:37:23;;;;;;;3.40;1.80;;;;;;;;;;5010051;28;20119;-72
2022/04/14 02:39:49;;;;;;;4.15;1.75;;;;;;;;;;5015759;28;20121;-68
2022/04/14 02:42:16;;;;;;;3.92;1.77;;;;;;;;;;5025638;28;20029;-68
2022/04/14 02:44:42;;;;;;;6.25;1.90;;;;;;;;;;5022791;28;20026;-69
2022/04/14 02:47:08;;;;;;;4.47;1.80;;;;;;;;;;5011709;28;20065;-70
2022/04/14 02:49:35;;;;;;;2.63;1.50;;;;;;;;;;5006895;28;20026;-69
2022/04/14 02:52:02;;;;;;;3.90;1.20;;;;;;;;;;5017682;28;20021;-69
2022/04/14 02:54:28;;;;;;;2.33;0.98;;;;;;;;;;5013329;28;20021;-69
2022/04/14 02:56:54;;;;;;;3.17;0.95;;;;;;;;;;5015620;28;20034;-69
2022/04/14 02:59:20;;;;;;;2.53;0.90;;;;;;;;;;5015345;28;20022;-70
2022/04/14 03:01:46;;;;;;;1.50;0.90;;;;;;;;;;5014887;28;20532;-70
2022/04/14 03:04:12;;;;;;;2.92;1.10;;;;;;;;;;5024040;28;20017;-69
2022/04/14 03:06:38;;;;;;;1.27;0.70;;;;;;;;;;5016711;28;20021;-69
2022/04/14 03:09:04;;;;;;;2.95;0.95;;;;;;;;;;5022006;28;20021;-69
2022/04/14 03:11:30;;;;;;;2.17;0.95;;;;;;;;;;5023519;28;20639;-70
2022/04/14 03:13:56;;;;;;;2.35;0.85;;;;;;;;;;5024622;28;20033;-71
2022/04/14 03:16:23;;;;;;;1.30;0.80;;;;;;;;;;5008327;28;20049;-70
2022/04/14 03:18:49;;;;;;;3.28;1.08;;;;;;;;;;5010463;28;20069;-69
2022/04/14 03:21:15;;;;;;;2.58;1.27;;;;;;;;;;5023043;28;20013;-69
2022/04/14 03:23:41;;;;;;;4.85;1.30;;;;;;;;;;5019729;28;20495;-69
2022/04/14 03:26:08;;;;;;;2.53;1.60;;;;;;;;;;5021406;28;20037;-70
2022/04/14 03:28:35;;;;;;;3.78;1.70;;;;;;;;;;5021420;28;20025;-70
2022/04/14 03:31:01;;;;;;;4.63;1.65;;;;;;;;;;5020176;28;20530;-70
2022/04/14 03:33:28;;;;;;;2.70;1.63;;;;;;;;;;5021476;28;20041;-75
2022/04/14 03:35:54;;;;;;;5.88;1.50;;;;;;;;;;5020122;28;20025;-69
2022/04/14 03:38:20;;;;;;;2.78;1.33;;;;;;;;;;5020319;28;20026;-70
2022/04/14 03:40:46;;;;;;;4.15;1.50;;;;;;;;;;5021670;28;20110;-81
2022/04/14 03:43:12;;;;;;;6.10;1.77;;;;;;;;;;5021048;28;20485;-70
2022/04/14 03:45:38;;;;;;;2.65;1.40;;;;;;;;;;5020921;28;20029;-71
2022/04/14 03:48:05;;;;;;;3.60;1.50;;;;;;;;;;5021826;28;20029;-73
2022/04/14 03:50:31;;;;;;;1.73;1.30;;;;;;;;;;5019943;28;20029;-83
2022/04/14 03:52:57;;;;;;;3.40;1.45;;;;;;;;;;5017182;28;20048;-71
2022/04/14 03:55:23;;;;;;;7.15;1.80;;;;;;;;;;5001316;28;20030;-77
2022/04/14 03:57:49;;;;;;;4.05;1.55;;;;;;;;;;5001150;28;20077;-73
2022/04/14 04:00:15;;;;;;;4.07;1.42;;;;;;;;;;5001444;28;20026;-70
2022/04/14 04:02:41;;;;;;;4.22;1.45;;;;;;;;;;5011349;28;20036;-72
2022/04/14 04:05:08;;;;;;;4.40;1.48;;;;;;;;;;5004433;28;20606;-70
2022/04/14 04:07:34;;;;;;;3.55;1.63;;;;;;;;;;5000939;28;20034;-70
2022/04/14 04:10:00;;;;;;;3.90;1.70;;;;;;;;;;5013108;28;20034;-70
2022/04/14 04:12:26;;;;;;;6.05;1.70;;;;;;;;;;5019814;28;20021;-69
2022/04/14 04:14:52;;;;;;;4.30;1.80;;;;;;;;;;5020897;28;20050;-70
2022/04/14 04:17:19;;;;;;;3.40;1.73;;;;;;;;;;5023088;28;20515;-70
2022/04/14 04:19:45;;;;;;;5.68;1.92;;;;;;;;;;5021982;28;20382;-71
2022/04/14 04:22:11;;;;;;;4.13;2.13;;;;;;;;;;5008661;28;20478;-70
2022/04/14 04:24:37;;;;;;;1.85;1.60;;;;;;;;;;5004034;28;20038;-70
2022/04/14 04:27:05;;;;;;;2.22;1.70;;;;;;;;;;5003865;28;20037;-70
2022/04/14 04:29:31;;;;;;;3.47;1.75;;;;;;;;;;5020376;28;20664;-69
2022/04/14 04:31:57;;;;;;;2.20;1.42;;;;;;;;;;5023642;28;20037;-70
2022/04/14 04:34:24;;;;;;;3.42;1.80;;;;;;;;;;5023295;28;20044;-72
2022/04/14 04:36:50;;;;;;;3.63;2.13;;;;;;;;;;5021615;28;20045;-70
2022/04/14 04:39:16;;;;;;;3.15;2.03;;;;;;;;;;5023381;28;20104;-69
2022/04/14 04:41:43;;;;;;;3.25;1.98;;;;;;;;;;5023527;28;20193;-71
2022/04/14 04:44:09;;;;;;;5.07;2.72;;;;;;;;;;5021958;28;20087;-70
2022/04/14 04:46:35;;;;;;;3.72;1.98;;;;;;;;;;5023254;28;20072;-70
2022/04/14 04:49:02;;;;;;;5.65;2.00;;;;;;;;;;5023339;28;20030;-94
2022/04/14 04:51:29;;;;;;;8.02;2.60;;;;;;;;;;5014052;28;20034;-70
2022/04/14 04:53:55;;;;;;;3.40;2.05;;;;;;;;;;5002635;28;20072;-70
2022/04/14 04:56:21;;;;;;;4.28;2.30;;;;;;;;;;5004042;28;20030;-75
2022/04/14 04:58:47;;;;;;;4.03;2.55;;;;;;;;;;5003973;28;20478;-69
2022/04/14 05:01:13;;;;;;;4.60;2.42;;;;;;;;;;5005280;28;20063;-70
2022/04/14 05:03:39;;;;;;;5.70;3.03;;;;;;;;;;5022022;28;20037;-70
2022/04/14 05:06:06;;;;;;;5.63;2.50;;;;;;;;;;5013796;28;20749;-70
2022/04/14 05:08:32;;;;;;;4.15;2.65;;;;;;;;;;5002715;28;20730;-69
2022/04/14 05:10:58;;;;;;;3.22;2.70;;;;;;;;;;5001950;28;20560;-69
2022/04/14 05:13:24;;;;;;;5.05;3.22;;;;;;;;;;5000739;28;20029;-71
2022/04/14 05:15:50;;;;;;;5.75;2.63;;;;;;;;;;5000625;28;20104;-70
2022/04/14 05:18:17;;;;;;;4.57;2.60;;;;;;;;;;5001356;28;20029;-69
2022/04/14 05:20:43;;;;;;;7.70;2.70;;;;;;;;;;5001357;28;20037;-70
2022/04/14 05:23:12;;;;;;;4.20;2.42;;;;;;;;;;5000290;28;20241;-69
2022/04/14 05:25:41;;;;;;;3.40;2.67;;;;;;;;;;5001975;28;20030;-69
2022/04/14 05:28:07;;;;;;;4.20;3.08;;;;;;;;;;5002695;28;20026;-70
2022/04/14 05:30:34;;;;;;;4.88;2.80;;;;;;;;;;5018999;28;20052;-70
2022/04/14 05:33:00;;;;;;;7.63;2.90;;;;;;;;;;5016345;28;20038;-70
2022/04/14 05:35:26;;;;;;;3.80;2.53;;;;;;;;;;5001199;28;20033;-69
2022/04/14 05:37:52;;;;;;;2.53;2.20;;;;;;;;;;5001716;28;20084;-70
2022/04/14 05:40:19;;;;;;;6.28;2.35;;;;;;;;;;5002472;28;20026;-70
2022/04/14 05:42:48;;;;;;;3.95;2.60;;;;;;;;;;5010301;28;20038;-70
2022/04/14 05:45:14;;;;;;;3.45;2.25;;;;;;;;;;5010759;28;20119;-69
2022/04/14 05:47:40;;;;;;;3.95;2.50;;;;;;;;;;5002474;28;20819;-70
2022/04/14 05:50:06;;;;;;;2.83;2.40;;;;;;;;;;5000961;28;20034;-69
2022/04/14 05:52:33;;;;;;;5.32;2.60;;;;;;;;;;5001509;28;20034;-69
2022/04/14 05:55:01;;;;;;;4.95;2.78;;;;;;;;;;5012761;28;20486;-70
2022/04/14 05:57:28;;;;;;;9.77;3.78;;;;;;;;;;5008821;28;20358;-70
2022/04/14 05:59:54;;;;;;;6.93;3.50;;;;;;;;;;5006741;28;20026;-70
2022/04/14 06:02:21;;;;;;;6.10;3.30;;;;;;;;;;5001862;28;20063;-70
2022/04/14 06:04:47;;;;;;;5.68;2.90;;;;;;;;;;5018348;28;20539;-70
2022/04/14 06:07:13;;;;;;;5.90;3.22;;;;;;;;;;5010384;28;20044;-69
2022/04/14 06:09:39;;;;;;;4.13;3.38;;;;;;;;;;5022073;28;20037;-69
2022/04/14 06:12:06;;;;;;;5.18;3.30;;;;;;;;;;5013083;28;20033;-69
2022/04/14 06:14:33;;;;;;;7.45;3.33;;;;;;;;;;5021205;28;20132;-69
2022/04/14 06:16:59;;;;;;;5.22;2.70;;;;;;;;;;5016851;28;20132;-69
2022/04/14 06:19:26;;;;;;;7.68;3.33;;;;;;;;;;5007026;28;20477;-69
2022/04/14 06:21:52;;;;;;;8.60;3.35;;;;;;;;;;5007427;28;20025;-69
2022/04/14 06:24:18;;;;;;;7.75;3.38;;;;;;;;;;5015307;28;20022;-70
2022/04/14 06:26:44;;;;;;;4.85;3.00;;;;;;;;;;5008305;28;20029;-69
2022/04/14 06:29:10;;;;;;;7.03;3.03;;;;;;;;;;5002004;28;20105;-70
2022/04/14 06:31:37;;;;;;;6.57;3.00;;;;;;;;;;5017148;28;20426;-69
2022/04/14 06:34:05;;;;;;;6.50;2.67;;;;;;;;;;5001226;28;20022;-69
2022/04/14 06:36:31;;;;;;;5.22;3.33;;;;;;;;;;5007171;28;20029;-69
2022/04/14 06:38:57;;;;;;;5.57;3.08;;;;;;;;;;5000264;28;20025;-70
2022/04/14 06:41:26;;;;;;;7.50;2.72;;;;;;;;;;5001740;28;20044;-69
2022/04/14 06:43:53;;;;;;;4.63;2.60;;;;;;;;;;5003931;28;20013;-69
2022/04/14 06:46:20;;;;;;;7.03;3.70;;;;;;;;;;5006934;28;20034;-70
2022/04/14 06:48:46;;;;;;;8.85;3.20;;;;;;;;;;5000776;28;20030;-69
2022/04/14 06:51:12;;;;;;;8.13;3.67;;;;;;;;;;5015844;28;20033;-69
2022/04/14 06:53:38;;;;;;;5.03;3.05;;;;;;;;;;5014609;28;20025;-69
2022/04/14 06:56:05;;;;;;;5.18;3.33;;;;;;;;;;4999209;28;20363;-69
2022/04/14 06:58:31;;;;;;;9.73;4.63;;;;;;;;;;5015649;28;20041;-70
2022/04/14 07:00:58;;;;;;;10.10;5.13;;;;;;;;;;5019166;28;20112;-70
2022/04/14 07:03:26;;;;;;;11.18;4.60;;;;;;;;;;5020504;28;20034;-69
2022/04/14 07:05:56;;;;;;;8.68;4.70;;;;;;;;;;5020904;28;20021;-69
2022/04/14 07:08:26;;;;;;;11.98;5.20;;;;;;;;;;5011672;28;20030;-69
2022/04/14 07:10:52;;;;;;;8.27;4.72;;;;;;;;;;5000807;28;20030;-70
2022/04/14 07:13:18;;;;;;;7.47;4.75;;;;;;;;;;5007233;28;20030;-69
2022/04/14 07:15:45;;;;;;;9.95;5.22;;;;;;;;;;5002389;28;20049;-69
2022/04/14 07:18:11;;;;;;;8.75;5.28;;;;;;;;;;5015650;28;20034;-69
2022/04/14 07:20:38;;;;;;;9.63;4.80;;;;;;;;;;5011767;28;20060;-69
2022/04/14 07:23:05;;;;;;;9.90;6.25;;;;;;;;;;5019022;28;20029;-69
2022/04/14 07:25:33;;;;;;;15.93;7.28;;;;;;;;;;5014000;28;20048;-69
2022/04/14 07:28:00;;;;;;;11.27;6.88;;;;;;;;;;5002786;28;20112;-69
2022/04/14 07:30:26;;;;;;;15.00;7.65;;;;;;;;;;5004578;28;20113;-70
2022/04/14 07:32:53;;;;;;;11.63;6.70;;;;;;;;;;5013961;28;20496;-71
2022/04/14 07:35:25;;;;;;;11.60;5.70;;;;;;;;;;5003907;28;20103;-69
2022/04/14 07:37:51;;;;;;;;;;;;;;;;;;5020323;28;20037;-70
2022/04/14 07:40:17;;;;;;;8.10;3.83;;;;;;;;;;5008691;28;20224;-70
2022/04/14 07:42:45;;;;;;;8.43;3.63;;;;;;;;;;5009739;28;20030;-69
2022/04/14 07:45:11;;;;;;;8.05;3.65;;;;;;;;;;4998945;28;20453;-69
2022/04/14 07:47:42;;;;;;;4.35;2.95;;;;;;;;;;5002950;28;20112;-70
2022/04/14 07:50:09;;;;;;;5.35;3.13;;;;;;;;;;5013893;28;20035;-69
2022/04/14 07:52:51;;;;;;;6.40;3.85;;;;;;;;;;5019540;28;20701;-69
2022/04/14 07:55:22;;;;;;;5.20;2.85;;;;;;;;;;5002050;28;20048;-70
2022/04/14 07:57:49;;;;;;;8.38;3.72;;;;;;;;;;5000325;28;20221;-69
2022/04/14 08:00:15;;;;;;;7.45;3.25;;;;;;;;;;5003102;28;20040;-70
2022/04/14 08:02:48;;;;;;;6.03;3.50;;;;;;;;;;5004136;28;20060;-71
2022/04/14 08:05:14;;;;;;;8.30;3.45;;;;;;;;;;5012055;28;20025;-70
2022/04/14 08:07:40;;;;;;;5.68;2.95;;;;;;;;;;5011207;28;20512;-69
2022/04/14 08:10:06;;;;;;;11.35;3.33;;;;;;;;;;5001597;28;20030;-70
2022/04/14 08:12:32;;;;;;;6.82;3.28;;;;;;;;;;5003034;28;20117;-69
2022/04/14 08:14:58;;;;;;;5.78;3.47;;;;;;;;;;5001572;28;20692;-70
2022/04/14 08:17:25;;;;;;;5.05;2.55;;;;;;;;;;5008840;28;20103;-69
2022/04/14 08:19:51;;;;;;;6.90;3.00;;;;;;;;;;5003085;28;20044;-69
2022/04/14 08:22:17;;;;;;;7.80;3.47;;;;;;;;;;4998977;28;20091;-70
2022/04/14 08:24:44;;;;;;;4.22;3.38;;;;;;;;;;5013683;28;20091;-70
2022/04/14 08:27:11;;;;;;;6.05;3.50;;;;;;;;;;5006765;28;20033;-70
2022/04/14 08:29:37;;;;;;;5.07;3.03;;;;;;;;;;5010541;28;20045;-70
2022/04/14 08:32:06;;;;;;;6.63;2.83;;;;;;;;;;5011104;28;20049;-71
2022/04/14 08:34:32;;;;;;;5.13;2.42;;;;;;;;;;5007348;28;20975;-74
2022/04/14 08:36:58;;;;;;;8.15;3.28;;;;;;;;;;5016339;28;20044;-69
2022/04/14 08:39:25;;;;;;;8.07;2.92;;;;;;;;;;5009996;28;20415;-68
2022/04/14 08:41:54;;;;;;;7.80;3.47;;;;;;;;;;5013748;28;20761;-69
2022/04/14 08:44:24;;;;;;;13.90;4.00;;;;;;;;;;5008525;28;20030;-69
2022/04/14 08:46:50;;;;;;;7.75;3.15;;;;;;;;;;5005056;28;20033;-69
2022/04/14 08:49:17;;;;;;;7.72;3.22;;;;;;;;;;5012776;28;20029;-70
2022/04/14 08:51:43;;;;;;;8.52;3.22;;;;;;;;;;5013880;28;20866;-69
2022/04/14 08:54:13;;;;;;;10.80;3.22;;;;;;;;;;5001936;28;20076;-72
2022/04/14 08:56:41;;;;;;;7.57;3.13;;;;;;;;;;5010512;28;20102;-79
2022/04/14 08:59:08;;;;;;;4.63;2.80;;;;;;;;;;4999756;28;20041;-70
2022/04/14 09:01:35;;;;;;;8.38;3.03;;;;;;;;;;4999437;28;20478;-69
2022/04/14 09:04:01;;;;;;;6.70;2.63;;;;;;;;;;5009874;28;20029;-69
2022/04/14 09:06:29;;;;;;;5.60;2.55;;;;;;;;;;5009733;28;20033;-70
2022/04/14 09:08:59;;;;;;;7.03;2.63;;;;;;;;;;5010663;28;20042;-73
2022/04/14 09:11:26;;;;;;;9.90;3.80;;;;;;;;;;5002568;28;20028;-72
2022/04/14 09:13:52;;;;;;;7.72;2.92;;;;;;;;;;5002954;28;20033;-69
2022/04/14 09:16:19;;;;;;;8.75;2.75;;;;;;;;;;5005974;28;20053;-73
2022/04/14 09:18:46;;;;;;;5.28;2.40;;;;;;;;;;5016101;28;20122;-69
2022/04/14 09:21:13;;;;;;;10.10;3.70;;;;;;;;;;5010384;28;20441;-70
2022/04/14 09:23:39;;;;;;;8.68;4.65;;;;;;;;;;5022300;28;20038;-69
2022/04/14 09:26:13;;;;;;;7.80;4.93;;;;;;;;;;5019490;28;20497;-69
2022/04/14 09:28:40;;;;;;;8.65;4.35;;;;;;;;;;5019477;28;20045;-73
2022/04/14 09:31:11;;;;;;;21.80;8.70;;;;;;;;;;5015474;28;20040;-69
2022/04/14 09:33:44;;;;;;;12.77;5.18;;;;;;;;;;5021851;28;20489;-70
2022/04/14 09:36:13;;;;;;;6.68;2.55;;;;;;;;;;5021828;28;20026;-70
2022/04/14 09:38:57;;;;;;;7.97;4.57;;;;;;;;;;5012427;28;20125;-70
2022/04/14 09:41:29;;;;;;;6.93;3.22;;;;;;;;;;5008856;28;20029;-71
2022/04/14 09:43:57;;;;;;;6.75;3.70;;;;;;;;;;5021685;28;20485;-70
2022/04/14 09:46:23;;;;;;;7.40;3.60;;;;;;;;;;5013306;28;20022;-69
2022/04/14 09:49:07;;;;;;;4.65;2.88;;;;;;;;;;5016272;28;20041;-69
2022/04/14 09:51:33;;;;;;;8.63;4.13;;;;;;;;;;5014825;28;20033;-69
2022/04/14 09:54:03;;;;;;;10.27;5.40;;;;;;;;;;5012949;28;20021;-69
2022/04/14 09:56:48;;;;;;;13.15;3.92;;;;;;;;;;5004759;28;20042;-69
2022/04/14 09:59:16;;;;;;;6.75;3.00;;;;;;;;;;5021183;28;20056;-71
2022/04/14 10:01:42;;;;;;;5.38;3.08;;;;;;;;;;5013303;28;20052;-69
2022/04/14 10:04:27;;;;;;;4.65;2.60;;;;;;;;;;5020651;28;20026;-84
2022/04/14 10:07:04;;;;;;;5.82;2.83;;;;;;;;;;5010505;28;20025;-73
2022/04/14 10:09:30;;;;;;;8.13;3.17;;;;;;;;;;5011840;28;20041;-69
2022/04/14 10:11:57;;;;;;;5.60;2.90;;;;;;;;;;5021535;28;20042;-85
2022/04/14 10:14:24;;;;;;;12.25;2.60;;;;;;;;;;5002800;28;20046;-70
2022/04/14 10:16:51;;;;;;;6.20;2.85;;;;;;;;;;4997653;28;20104;-71
2022/04/14 10:19:19;;;;;;;8.40;2.67;;;;;;;;;;5008052;28;20660;-72
2022/04/14 10:21:46;;;;;;;5.68;2.45;;;;;;;;;;5004517;28;20846;-73
2022/04/14 10:24:12;;;;;;;5.05;2.30;;;;;;;;;;5015459;28;20504;-70
2022/04/14 10:26:38;;;;;;;5.35;2.50;;;;;;;;;;5018829;28;20037;-70
2022/04/14 10:29:06;;;;;;;6.63;2.83;;;;;;;;;;5016272;28;20060;-70
2022/04/14 10:31:39;;;;;;;5.10;2.85;;;;;;;;;;5001761;28;20036;-71
2022/04/14 10:34:06;;;;;;;6.35;2.67;;;;;;;;;;5002284;28;20025;-79
2022/04/14 10:36:37;;;;;;;12.77;2.95;;;;;;;;;;5010274;28;20069;-70
2022/04/14 10:39:03;;;;;;;7.05;2.85;;;;;;;;;;5018753;28;20026;-81
2022/04/14 10:41:32;;;;;;;5.05;2.60;;;;;;;;;;5015786;28;20034;-75
2022/04/14 10:44:03;;;;;;;5.05;2.20;;;;;;;;;;4999740;28;20439;-71
2022/04/14 10:46:33;;;;;;;6.97;2.60;;;;;;;;;;5010644;28;20030;-75
2022/04/14 10:49:12;;;;;;;5.72;2.17;;;;;;;;;;5009995;28;20113;-75
2022/04/14 10:51:39;;;;;;;4.65;2.35;;;;;;;;;;5000288;28;20065;-74
2022/04/14 10:54:06;;;;;;;4.97;2.30;;;;;;;;;;5011187;28;20111;-70
2022/04/14 10:56:35;;;;;;;6.50;2.38;;;;;;;;;;5000669;28;20061;-72
2022/04/14 10:59:02;;;;;;;4.78;2.38;;;;;;;;;;5010404;28;20124;-70
2022/04/14 11:01:47;;;;;;;3.65;2.13;;;;;;;;;;5017510;28;20105;-73
2022/04/14 11:04:33;;;;;;;14.77;3.17;;;;;;;;;;5008868;28;20025;-75
2022/04/14 11:07:12;;;;;;;9.82;3.50;;;;;;;;;;5018244;28;20040;-70
2022/04/14 11:09:50;;;;;;;7.20;3.25;;;;;;;;;;5017320;28;20028;-70
2022/04/14 11:12:19;;;;;;;11.18;3.50;;;;;;;;;;5001458;28;20161;-70
2022/04/14 11:14:46;;;;;;;12.38;4.28;;;;;;;;;;5000764;28;20057;-76
2022/04/14 11:17:48;;;;;;;7.57;3.90;;;;;;;;;;5011771;28;20044;-73
2022/04/14 11:20:45;;;;;;;7.20;4.23;;;;;;;;;;5014395;28;20030;-72
2022/04/14 11:23:17;;;;;;;6.00;2.50;;;;;;;;;;5016282;28;21077;-70
2022/04/14 11:25:49;;;;;;;;;;;;;;;;;;5005744;28;20053;-70
2022/04/14 11:28:15;;;;;;;4.80;2.72;;;;;;;;;;5006947;28;20420;-70
2022/04/14 11:30:42;;;;;;;6.10;3.00;;;;;;;;;;5006242;28;20045;-69
2022/04/14 11:33:15;;;;;;;4.82;2.70;;;;;;;;;;5010009;28;20212;-74
2022/04/14 11:35:45;;;;;;;4.80;2.85;;;;;;;;;;5010114;28;20030;-71
2022/04/14 11:38:31;;;;;;;4.40;2.45;;;;;;;;;;5011449;28;20513;-70
2022/04/14 11:40:57;;;;;;;7.15;2.63;;;;;;;;;;5004587;28;20030;-70
2022/04/14 11:43:24;;;;;;;4.75;3.00;;;;;;;;;;5006207;28;20037;-71
2022/04/14 11:45:51;;;;;;;4.68;2.90;;;;;;;;;;5001080;28;20061;-71
2022/04/14 11:48:17;;;;;;;7.57;2.78;;;;;;;;;;5010310;28;20029;-70
2022/04/14 11:50:43;;;;;;;3.25;2.17;;;;;;;;;;5021876;28;20041;-69
2022/04/14 11:53:09;;;;;;;7.15;2.75;;;;;;;;;;5011582;28;20247;-70
2022/04/14 11:55:36;;;;;;;7.47;2.70;;;;;;;;;;5001741;28;20109;-70
2022/04/14 11:58:15;;;;;;;8.43;2.70;;;;;;;;;;5009452;28;20051;-70
2022/04/14 12:00:45;;;;;;;4.13;2.42;;;;;;;;;;5011553;28;20038;-69
2022/04/14 12:03:11;;;;;;;6.28;2.80;;;;;;;;;;5001677;28;20087;-69
2022/04/14 12:05:38;;;;;;;5.32;2.30;;;;;;;;;;4999449;28;20049;-69
2022/04/14 12:08:07;;;;;;;6.03;2.60;;;;;;;;;;4999946;28;20030;-70
2022/04/14 12:10:33;;;;;;;8.82;2.65;;;;;;;;;;5000481;28;20056;-77
2022/04/14 12:13:10;;;;;;;3.85;2.35;;;;;;;;;;5001264;28;20034;-69
2022/04/14 12:15:36;;;;;;;6.30;2.65;;;;;;;;;;5002709;28;20048;-70
2022/04/14 12:18:09;;;;;;;7.68;2.95;;;;;;;;;;5013160;28;20033;-70
2022/04/14 12:20:36;;;;;;;4.50;2.83;;;;;;;;;;5007985;28;20059;-70
2022/04/14 12:23:03;;;;;;;8.80;3.00;;;;;;;;;;5014687;28;20305;-78
2022/04/14 12:25:29;;;;;;;6.57;3.15;;;;;;;;;;5014179;28;20839;-73
2022/04/14 12:27:56;;;;;;;8.57;3.10;;;;;;;;;;5008534;28;20084;-69
2022/04/14 12:30:23;;;;;;;7.68;2.88;;;;;;;;;;5015774;28;20029;-70
2022/04/14 12:32:49;;;;;;;5.25;2.50;;;;;;;;;;5000582;28;20212;-70
2022/04/14 12:35:30;;;;;;;14.70;2.85;;;;;;;;;;4998403;28;20026;-69
2022/04/14 12:38:10;;;;;;;3.50;2.35;;;;;;;;;;5012376;28;20079;-69
2022/04/14 12:40:36;;;;;;;5.35;2.72;;;;;;;;;;5015694;28;20033;-72
2022/04/14 12:43:06;;;;;;;5.75;2.80;;;;;;;;;;5011678;28;20696;-69
2022/04/14 12:45:40;;;;;;;6.20;2.33;;;;;;;;;;5022692;28;20036;-69
2022/04/14 12:48:07;;;;;;;8.63;2.42;;;;;;;;;;5008801;28;20025;-69
2022/04/14 12:50:33;;;;;;;5.50;2.30;;;;;;;;;;5020648;28;20033;-69
2022/04/14 12:52:59;;;;;;;2.88;2.13;;;;;;;;;;5017128;28;20029;-70
2022/04/14 12:55:27;;;;;;;3.83;2.13;;;;;;;;;;5016515;28;20034;-69
2022/04/14 12:58:13;;;;;;;5.90;2.35;;;;;;;;;;5006618;28;20033;-69
2022/04/14 13:00:39;;;;;;;4.97;2.25;;;;;;;;;;5008592;28;20040;-69
2022/04/14 13:03:13;;;;;;;4.28;2.50;;;;;;;;;;5013281;28;20040;-69
2022/04/14 13:05:40;;;;;;;4.32;2.35;;;;;;;;;;5017305;28;20029;-69
2022/04/14 13:08:07;;;;;;;3.45;2.25;;;;;;;;;;5021252;28;20026;-69
2022/04/14 13:10:36;;;;;;;5.80;3.10;;;;;;;;;;5020564;28;20128;-69
2022/04/14 13:13:03;;;;;;;5.22;2.40;;;;;;;;;;5002777;28;20105;-69
2022/04/14 13:15:29;;;;;;;4.38;3.10;;;;;;;;;;5009204;28;20050;-69
2022/04/14 13:17:56;;;;;;;5.40;2.53;;;;;;;;;;5005150;28;20037;-69
2022/04/14 13:20:24;;;;;;;6.63;2.85;;;;;;;;;;5002844;28;20377;-69
2022/04/14 13:22:54;;;;;;;7.50;2.55;;;;;;;;;;5001276;28;20030;-69
2022/04/14 13:25:22;;;;;;;3.70;2.50;;;;;;;;;;5002415;28;20721;-68
2022/04/14 13:27:48;;;;;;;5.63;2.78;;;;;;;;;;5001829;28;20038;-69
2022/04/14 13:30:15;;;;;;;9.80;2.67;;;;;;;;;;5000789;28;20026;-71
2022/04/14 13:32:41;;;;;;;5.80;2.33;;;;;;;;;;5004875;28;20044;-68
2022/04/14 13:35:08;;;;;;;8.27;2.80;;;;;;;;;;5007551;28;20592;-69
2022/04/14 13:37:35;;;;;;;5.72;3.42;;;;;;;;;;5019015;28;20052;-70
2022/04/14 13:40:02;;;;;;;38.65;23.70;;;;;;;;;;5030805;28;20026;-69
2022/04/14 13:42:31;;;;;;;65.63;36.25;;;;;;;;;;5013816;28;20057;-68
2022/04/14 13:44:58;;;;;;;73.68;41.50;;;;;;;;;;5011103;28;20026;-75
2022/04/14 13:47:25;;;;;;;48.45;27.95;;;;;;;;;;5018275;28;20030;-68
2022/04/14 13:49:51;;;;;;;62.85;36.58;;;;;;;;;;5015949;28;20021;-70
2022/04/14 13:52:17;;;;;;;74.93;38.63;;;;;;;;;;5003203;28;20037;-69
2022/04/14 13:54:44;;;;;;;58.67;28.40;;;;;;;;;;5002263;28;20026;-69
2022/04/14 13:57:10;;;;;;;44.22;22.75;;;;;;;;;;5008430;28;20225;-72
2022/04/14 13:59:36;;;;;;;36.85;18.15;;;;;;;;;;5010196;28;20017;-81
2022/04/14 14:02:02;;;;;;;49.63;23.77;;;;;;;;;;5017696;28;20034;-72
2022/04/14 14:04:29;;;;;;;41.70;18.88;;;;;;;;;;5009288;28;20036;-74
2022/04/14 14:06:55;;;;;;;47.20;24.08;;;;;;;;;;5001868;28;20077;-80
2022/04/14 14:09:21;;;;;;;38.63;18.10;;;;;;;;;;5001772;28;20500;-75
2022/04/14 14:11:47;;;;;;;18.70;8.50;;;;;;;;;;4998907;28;20609;-78
2022/04/14 14:14:13;;;;;;;11.00;7.10;;;;;;;;;;5005511;28;20029;-69
2022/04/14 14:16:40;;;;;;;15.95;6.47;;;;;;;;;;5019233;28;20044;-69
2022/04/14 14:19:06;;;;;;;27.88;13.60;;;;;;;;;;5020333;28;20504;-69
2022/04/14 14:21:32;;;;;;;25.45;12.25;;;;;;;;;;5009867;28;20104;-69
2022/04/14 14:23:59;;;;;;;11.30;5.43;;;;;;;;;;5007630;28;20033;-69
2022/04/14 14:26:25;;;;;;;6.30;3.50;;;;;;;;;;4999283;28;20060;-71
2022/04/14 14:28:51;;;;;;;6.53;3.42;;;;;;;;;;5001064;28;20033;-69
2022/04/14 14:31:22;;;;;;;6.57;2.92;;;;;;;;;;5000495;28;20502;-70
2022/04/14 14:33:48;;;;;;;6.27;3.00;;;;;;;;;;5005411;28;20037;-70
2022/04/14 14:36:15;;;;;;;6.03;3.22;;;;;;;;;;5009088;28;20056;-69
2022/04/14 14:38:41;;;;;;;5.60;3.03;;;;;;;;;;5012846;28;20037;-69
2022/04/14 14:41:08;;;;;;;6.28;2.97;;;;;;;;;;5015352;28;20120;-69
2022/04/14 14:43:37;;;;;;;8.90;2.90;;;;;;;;;;5011362;28;20452;-69